Time;durP1;ratioP1;P1;durP2;ratioP2;P2;SDS_P1;SDS_P2;PMS_P1;PMS_P2;Temp;Humidity;BMP_temperature;BMP_pressure;BME280_temperature;BME280_humidity;BME280_pressure;Samples;Min_cycle;Max_cycle;Signal;HPM_P1;HPM_P2
2021/04/26 00:01:07;;;;;;;1.40;1.23;;;6.60;99.90;;;;;;6158448;22;20160;-92
2021/04/26 00:03:33;;;;;;;2.80;1.30;;;6.60;99.90;;;;;;6160082;22;20161;-87
2021/04/26 00:05:58;;;;;;;1.10;1.00;;;6.60;99.90;;;;;;6259192;22;20193;-89
2021/04/26 00:08:24;;;;;;;2.93;1.50;;;6.60;99.90;;;;;;6259019;22;20293;-89
2021/04/26 00:10:49;;;;;;;1.13;1.03;;;6.60;99.90;;;;;;6262626;22;20561;-89
2021/04/26 00:13:15;;;;;;;2.77;1.10;;;6.60;99.90;;;;;;6263377;22;20162;-93
2021/04/26 00:15:42;;;;;;;2.30;0.90;;;6.70;99.90;;;;;;6259662;22;20204;-64
2021/04/26 00:18:08;;;;;;;1.13;1.00;;;6.70;99.90;;;;;;6201654;22;20261;-64
2021/04/26 00:20:34;;;;;;;3.23;1.37;;;6.60;99.90;;;;;;6196100;22;20568;-65
2021/04/26 00:23:01;;;;;;;1.17;1.00;;;6.70;99.90;;;;;;6176248;23;20168;-64
2021/04/26 00:25:27;;;;;;;2.60;1.20;;;6.70;99.90;;;;;;6178322;22;20210;-64
2021/04/26 00:27:53;;;;;;;4.07;1.00;;;6.70;99.90;;;;;;6177122;22;20583;-65
2021/04/26 00:30:22;;;;;;;2.43;1.30;;;6.70;99.90;;;;;;6279449;22;20635;-64
2021/04/26 00:32:48;;;;;;;1.50;1.17;;;6.70;99.90;;;;;;6173142;22;20524;-64
2021/04/26 00:35:15;;;;;;;2.10;1.20;;;6.70;99.90;;;;;;6251194;22;20940;-64
2021/04/26 00:37:42;;;;;;;1.50;1.40;;;6.60;99.90;;;;;;6170428;22;20588;-64
2021/04/26 00:40:13;;;;;;;2.20;1.53;;;6.60;99.90;;;;;;6174280;22;20568;-64
2021/04/26 00:42:39;;;;;;;1.70;1.40;;;6.60;99.90;;;;;;6172425;23;20517;-65
2021/04/26 00:45:09;;;;;;;2.40;0.93;;;6.60;99.90;;;;;;6173772;22;20852;-62
2021/04/26 00:47:43;;;;;;;1.33;1.00;;;6.60;99.90;;;;;;6170877;22;20584;-63
2021/04/26 00:50:12;;;;;;;1.00;0.90;;;6.60;99.90;;;;;;6282384;22;21120;-62
2021/04/26 00:52:38;;;;;;;1.40;1.10;;;6.60;99.90;;;;;;6283299;22;20572;-62
2021/04/26 00:55:05;;;;;;;1.13;1.10;;;6.50;99.90;;;;;;6177410;22;20590;-62
2021/04/26 00:57:31;;;;;;;1.40;0.90;;;6.50;99.90;;;;;;6283946;22;20595;-63
2021/04/26 00:59:57;;;;;;;2.20;1.17;;;6.40;99.90;;;;;;6175642;23;20536;-62
2021/04/26 01:02:26;;;;;;;1.63;1.27;;;6.40;99.90;;;;;;6181855;23;20174;-65
2021/04/26 01:04:53;;;;;;;1.23;1.00;;;6.30;99.90;;;;;;6184973;22;20532;-63
2021/04/26 01:07:18;;;;;;;1.87;1.10;;;6.30;99.90;;;;;;6283134;22;20967;-62
2021/04/26 01:09:46;;;;;;;1.70;1.20;;;6.30;99.90;;;;;;6178416;23;21007;-63
2021/04/26 01:12:38;;;;;;;1.67;1.20;;;6.30;99.90;;;;;;6185444;23;20213;-62
2021/04/26 01:15:15;;;;;;;2.33;1.27;;;6.30;99.90;;;;;;6184237;23;20597;-62
2021/04/26 01:17:56;;;;;;;1.70;1.20;;;6.20;99.90;;;;;;6180864;22;20592;-63
2021/04/26 01:20:36;;;;;;;2.00;1.20;;;6.20;99.90;;;;;;6283164;22;20602;-63
2021/04/26 01:23:29;;;;;;;2.90;1.30;;;6.10;99.90;;;;;;6177877;23;20505;-62
2021/04/26 01:25:55;;;;;;;2.40;1.73;;;6.10;99.90;;;;;;6286927;22;20595;-63
2021/04/26 01:28:44;;;;;;;1.70;0.93;;;6.00;99.90;;;;;;6282583;22;20588;-62
2021/04/26 01:31:26;;;;;;;3.03;1.30;;;6.00;99.90;;;;;;6287398;22;20185;-62
2021/04/26 01:33:57;;;;;;;1.30;1.20;;;6.00;99.90;;;;;;6181047;22;20539;-62
2021/04/26 01:36:27;;;;;;;7.10;1.60;;;5.90;99.90;;;;;;6291157;22;20606;-62
2021/04/26 01:38:56;;;;;;;1.10;0.90;;;5.90;99.90;;;;;;6182282;22;20986;-62
2021/04/26 01:41:25;;;;;;;1.10;0.90;;;5.80;99.90;;;;;;6312669;22;20659;-62
2021/04/26 01:43:52;;;;;;;3.00;1.30;;;5.70;99.90;;;;;;6179264;22;20581;-62
2021/04/26 01:46:19;;;;;;;1.00;0.90;;;5.70;99.90;;;;;;6170377;22;20540;-63
2021/04/26 01:48:50;;;;;;;1.63;1.07;;;5.70;99.90;;;;;;6172832;22;20580;-62
2021/04/26 01:51:17;;;;;;;1.13;1.03;;;5.60;99.90;;;;;;6174729;22;20562;-63
2021/04/26 01:53:44;;;;;;;1.10;1.00;;;5.60;99.90;;;;;;6171651;23;20563;-62
2021/04/26 01:56:12;;;;;;;1.00;0.90;;;5.50;99.90;;;;;;6176675;22;20599;-62
2021/04/26 01:58:40;;;;;;;1.10;1.10;;;5.50;99.90;;;;;;6173047;22;20576;-62
2021/04/26 02:01:07;;;;;;;2.40;1.33;;;5.50;99.90;;;;;;6177664;22;20580;-62
2021/04/26 02:03:35;;;;;;;1.20;1.10;;;5.50;99.90;;;;;;6177637;22;20551;-61
2021/04/26 02:06:01;;;;;;;1.87;1.20;;;5.40;99.90;;;;;;6307395;22;20583;-65
2021/04/26 02:08:28;;;;;;;1.43;1.33;;;5.40;99.90;;;;;;6178178;22;20600;-64
2021/04/26 02:10:54;;;;;;;1.17;1.07;;;5.40;99.90;;;;;;6283750;22;20629;-62
2021/04/26 02:13:23;;;;;;;1.27;1.17;;;5.30;99.90;;;;;;6180998;22;20547;-62
2021/04/26 02:15:50;;;;;;;1.23;1.13;;;5.30;99.90;;;;;;6285540;22;20706;-62
2021/04/26 02:18:16;;;;;;;1.23;1.07;;;5.30;99.90;;;;;;6257591;22;20584;-62
2021/04/26 02:20:44;;;;;;;8.23;1.27;;;5.20;99.90;;;;;;6310935;22;20600;-62
2021/04/26 02:23:12;;;;;;;1.50;1.10;;;5.20;99.90;;;;;;6281165;22;20157;-62
2021/04/26 02:25:40;;;;;;;1.90;1.57;;;5.10;99.90;;;;;;6182900;22;20537;-62
2021/04/26 02:28:06;;;;;;;1.50;1.00;;;5.10;99.90;;;;;;6183890;22;20596;-62
2021/04/26 02:30:31;;;;;;;1.10;1.00;;;5.00;99.90;;;;;;6281985;22;20599;-63
2021/04/26 02:33:12;;;;;;;1.30;1.17;;;5.00;99.90;;;;;;6172929;23;20184;-64
2021/04/26 02:35:44;;;;;;;1.90;1.47;;;4.90;99.90;;;;;;6177872;23;20180;-62
2021/04/26 02:38:14;;;;;;;2.40;1.43;;;4.90;99.90;;;;;;6247093;22;20626;-63
2021/04/26 02:40:48;;;;;;;1.23;1.13;;;4.90;99.90;;;;;;6276204;22;20587;-64
2021/04/26 02:43:18;;;;;;;1.00;0.90;;;4.80;99.90;;;;;;6270627;22;21131;-63
2021/04/26 02:45:50;;;;;;;2.93;1.30;;;4.80;99.90;;;;;;6172824;22;20614;-62
2021/04/26 02:48:17;;;;;;;1.47;1.20;;;4.80;99.90;;;;;;6268070;22;20755;-63
2021/04/26 02:50:43;;;;;;;2.57;1.30;;;4.70;99.90;;;;;;6169162;22;20779;-63
2021/04/26 02:53:11;;;;;;;1.70;1.00;;;4.70;99.90;;;;;;6271486;22;20568;-63
2021/04/26 02:55:38;;;;;;;1.40;1.20;;;4.70;99.90;;;;;;6169461;23;21170;-64
2021/04/26 02:58:07;;;;;;;1.27;1.17;;;4.60;99.90;;;;;;6268545;22;20587;-63
2021/04/26 03:00:33;;;;;;;1.53;1.20;;;4.60;99.90;;;;;;6164464;22;21154;-62
2021/04/26 03:03:00;;;;;;;2.20;1.30;;;4.50;99.90;;;;;;6166084;22;21055;-63
2021/04/26 03:05:26;;;;;;;1.83;1.30;;;4.50;99.90;;;;;;6167642;22;20631;-63
2021/04/26 03:07:52;;;;;;;4.33;1.40;;;4.40;99.90;;;;;;6244217;22;21179;-63
2021/04/26 03:10:18;;;;;;;1.83;1.47;;;4.40;99.90;;;;;;6164819;22;20614;-62
2021/04/26 03:12:48;;;;;;;1.37;1.20;;;4.40;99.90;;;;;;6167572;23;20161;-62
2021/04/26 03:15:19;;;;;;;1.37;1.27;;;4.40;99.90;;;;;;6167098;22;20553;-63
2021/04/26 03:17:46;;;;;;;2.03;1.23;;;4.30;99.90;;;;;;6164177;22;20731;-62
2021/04/26 03:20:14;;;;;;;3.20;1.23;;;4.30;99.90;;;;;;6165784;22;20931;-63
2021/04/26 03:22:41;;;;;;;2.13;1.60;;;4.30;99.90;;;;;;6166944;22;20541;-63
2021/04/26 03:25:08;;;;;;;1.23;1.13;;;4.30;99.90;;;;;;6165567;22;21044;-63
2021/04/26 03:27:34;;;;;;;1.93;1.20;;;4.30;99.90;;;;;;6167160;22;20614;-62
2021/04/26 03:30:01;;;;;;;2.70;1.30;;;4.30;99.90;;;;;;6167176;22;20544;-62
2021/04/26 03:32:28;;;;;;;2.10;1.30;;;4.30;99.90;;;;;;6273135;22;20560;-62
2021/04/26 03:34:54;;;;;;;2.80;1.70;;;4.30;99.90;;;;;;6168840;22;20683;-62
2021/04/26 03:37:23;;;;;;;1.40;1.30;;;4.30;99.90;;;;;;6165521;22;20595;-62
2021/04/26 03:39:49;;;;;;;4.50;1.57;;;4.30;99.90;;;;;;6270889;22;20655;-62
2021/04/26 03:42:16;;;;;;;1.97;1.80;;;4.30;99.90;;;;;;6172756;23;20564;-62
2021/04/26 03:44:47;;;;;;;4.43;1.23;;;4.30;99.90;;;;;;6275809;22;20238;-62
2021/04/26 03:47:12;;;;;;;1.87;1.40;;;4.20;99.90;;;;;;6169294;22;20698;-62
2021/04/26 03:49:39;;;;;;;1.30;1.20;;;4.20;99.90;;;;;;6167381;23;20957;-62
2021/04/26 03:52:08;;;;;;;2.40;1.20;;;4.20;99.90;;;;;;6164937;23;20180;-61
2021/04/26 03:54:34;;;;;;;3.33;1.50;;;4.20;99.90;;;;;;6168367;23;20635;-63
2021/04/26 03:57:00;;;;;;;1.60;1.30;;;4.20;99.90;;;;;;6267496;22;20736;-63
2021/04/26 03:59:26;;;;;;;1.20;1.10;;;4.30;99.90;;;;;;6165220;22;20146;-62
2021/04/26 04:01:51;;;;;;;2.40;1.60;;;4.30;99.90;;;;;;6167154;22;21070;-62
2021/04/26 04:04:17;;;;;;;2.10;1.30;;;4.30;99.90;;;;;;6166765;22;20214;-62
2021/04/26 04:06:42;;;;;;;1.23;1.13;;;4.40;99.90;;;;;;6163848;23;20498;-62
2021/04/26 04:09:08;;;;;;;1.50;1.40;;;4.40;99.90;;;;;;6161493;22;20603;-62
2021/04/26 04:11:35;;;;;;;1.33;1.20;;;4.40;99.90;;;;;;6268163;22;20185;-62
2021/04/26 04:14:03;;;;;;;1.90;1.50;;;4.50;99.90;;;;;;6164423;22;20537;-62
2021/04/26 04:16:30;;;;;;;2.20;1.50;;;4.50;99.90;;;;;;6265305;22;21179;-62
2021/04/26 04:18:56;;;;;;;1.67;1.33;;;4.60;99.90;;;;;;6166678;22;20596;-62
2021/04/26 04:21:22;;;;;;;1.90;1.20;;;4.50;99.90;;;;;;6161606;22;20571;-63
2021/04/26 04:23:48;;;;;;;1.53;1.43;;;4.50;99.90;;;;;;6167580;23;20548;-62
2021/04/26 04:26:15;;;;;;;4.67;1.63;;;4.50;99.90;;;;;;6266888;22;20172;-62
2021/04/26 04:28:41;;;;;;;3.40;1.60;;;4.50;99.90;;;;;;6167379;22;20319;-62
2021/04/26 04:31:07;;;;;;;1.50;1.40;;;4.60;99.90;;;;;;6165238;23;21111;-61
2021/04/26 04:33:35;;;;;;;3.60;1.60;;;4.50;99.90;;;;;;6270566;22;20160;-62
2021/04/26 04:36:04;;;;;;;1.50;1.40;;;4.50;99.90;;;;;;6168122;23;20724;-62
2021/04/26 04:38:29;;;;;;;1.60;1.50;;;4.50;99.90;;;;;;6163202;22;20588;-62
2021/04/26 04:40:56;;;;;;;3.13;1.97;;;4.50;99.90;;;;;;6163004;23;20567;-62
2021/04/26 04:43:23;;;;;;;2.80;1.83;;;4.50;99.90;;;;;;6166287;22;20146;-62
2021/04/26 04:45:49;;;;;;;3.97;2.07;;;4.60;99.90;;;;;;6163669;22;20553;-62
2021/04/26 04:48:14;;;;;;;2.70;2.50;;;4.50;99.90;;;;;;6167968;22;20598;-62
2021/04/26 04:50:40;;;;;;;2.77;1.77;;;4.60;99.90;;;;;;6168411;23;20572;-62
2021/04/26 04:53:05;;;;;;;3.00;1.53;;;4.60;99.90;;;;;;6163610;23;20670;-61
2021/04/26 04:55:34;;;;;;;3.53;1.80;;;4.60;99.90;;;;;;6173109;23;20185;-62
2021/04/26 04:57:59;;;;;;;6.43;2.10;;;4.70;99.90;;;;;;6167968;22;20200;-62
2021/04/26 05:00:25;;;;;;;3.03;1.80;;;4.70;99.90;;;;;;6165739;23;21126;-63
2021/04/26 05:02:50;;;;;;;2.63;1.80;;;4.70;99.90;;;;;;6169256;23;20153;-62
2021/04/26 05:05:19;;;;;;;4.00;1.80;;;4.70;99.90;;;;;;6164642;23;20168;-62
2021/04/26 05:07:45;;;;;;;4.43;2.00;;;4.80;99.90;;;;;;6292294;22;20201;-62
2021/04/26 05:10:13;;;;;;;2.60;2.10;;;4.80;99.90;;;;;;6161042;22;20606;-63
2021/04/26 05:12:38;;;;;;;2.83;2.00;;;4.90;99.90;;;;;;6162998;22;20867;-62
2021/04/26 05:15:05;;;;;;;4.87;2.20;;;4.90;99.90;;;;;;6271496;22;20644;-62
2021/04/26 05:17:32;;;;;;;4.83;2.17;;;5.00;99.90;;;;;;6164768;22;20204;-63
2021/04/26 05:20:00;;;;;;;2.00;1.80;;;5.00;99.90;;;;;;6168692;22;21138;-62
2021/04/26 05:22:28;;;;;;;4.00;1.80;;;5.10;99.90;;;;;;6167769;22;20593;-62
2021/04/26 05:24:53;;;;;;;5.33;2.77;;;5.10;99.90;;;;;;6162357;23;21137;-62
2021/04/26 05:27:19;;;;;;;2.60;2.40;;;5.10;99.90;;;;;;6268256;22;20584;-61
2021/04/26 05:29:45;;;;;;;2.63;2.40;;;5.20;99.90;;;;;;6164400;23;20161;-64
2021/04/26 05:32:10;;;;;;;3.80;2.40;;;5.20;99.90;;;;;;6166073;23;20550;-63
2021/04/26 05:34:36;;;;;;;3.73;2.23;;;5.30;99.90;;;;;;6270043;22;20211;-62
2021/04/26 05:37:02;;;;;;;4.30;2.50;;;5.30;99.90;;;;;;6164582;22;20157;-63
2021/04/26 05:39:29;;;;;;;2.40;1.90;;;5.30;99.90;;;;;;6272619;22;20238;-63
2021/04/26 05:41:57;;;;;;;3.93;2.93;;;5.40;99.90;;;;;;6164760;23;20176;-62
2021/04/26 05:44:22;;;;;;;4.10;2.20;;;5.40;99.90;;;;;;6158314;22;21293;-63
2021/04/26 05:46:48;;;;;;;2.73;2.27;;;5.40;99.90;;;;;;6152943;23;20789;-63
2021/04/26 05:49:13;;;;;;;2.80;2.30;;;5.50;99.90;;;;;;6157499;22;20219;-63
2021/04/26 05:51:39;;;;;;;3.00;2.10;;;5.50;99.90;;;;;;6163243;23;20177;-62
2021/04/26 05:54:05;;;;;;;2.60;1.90;;;5.50;99.90;;;;;;6160160;23;20161;-61
2021/04/26 05:56:30;;;;;;;4.73;2.20;;;5.60;99.90;;;;;;6263610;22;20686;-63
2021/04/26 05:58:56;;;;;;;2.87;1.80;;;5.70;99.90;;;;;;6256896;22;20597;-62
2021/04/26 06:01:21;;;;;;;3.53;2.40;;;5.70;99.90;;;;;;6262910;22;20488;-62
2021/04/26 06:03:47;;;;;;;4.47;2.37;;;5.80;99.90;;;;;;6159979;23;20183;-62
2021/04/26 06:06:18;;;;;;;10.67;2.50;;;5.80;99.90;;;;;;6158825;22;20188;-61
2021/04/26 06:08:45;;;;;;;2.30;2.03;;;5.90;99.90;;;;;;6261948;22;20632;-63
2021/04/26 06:11:11;;;;;;;2.83;2.30;;;5.90;99.90;;;;;;6162175;23;20591;-63
2021/04/26 06:13:37;;;;;;;4.20;2.20;;;6.00;99.90;;;;;;6165580;22;20553;-62
2021/04/26 06:16:02;;;;;;;3.80;1.90;;;6.10;99.90;;;;;;6255840;22;20253;-62
2021/04/26 06:18:28;;;;;;;3.97;1.73;;;6.20;99.90;;;;;;6254425;22;20464;-62
2021/04/26 06:20:54;;;;;;;2.53;1.50;;;6.20;99.90;;;;;;6153856;23;20225;-62
2021/04/26 06:23:20;;;;;;;2.63;1.60;;;6.30;99.90;;;;;;6160268;23;20149;-62
2021/04/26 06:25:49;;;;;;;5.13;1.83;;;6.30;99.90;;;;;;6257075;22;20560;-62
2021/04/26 06:28:16;;;;;;;2.23;1.73;;;6.50;99.90;;;;;;6158402;22;21000;-63
2021/04/26 06:30:43;;;;;;;5.57;2.03;;;6.50;99.90;;;;;;6263486;22;20584;-62
2021/04/26 06:33:14;;;;;;;2.53;1.80;;;6.60;99.90;;;;;;6163255;22;20571;-62
2021/04/26 06:35:41;;;;;;;2.47;1.43;;;6.70;99.90;;;;;;6160303;22;20606;-63
2021/04/26 06:38:07;;;;;;;3.30;1.40;;;6.70;99.90;;;;;;6161484;22;20975;-62
2021/04/26 06:40:33;;;;;;;3.83;1.40;;;6.70;99.90;;;;;;6267543;22;20592;-62
2021/04/26 06:42:58;;;;;;;2.13;1.60;;;6.70;99.90;;;;;;6269573;22;20230;-62
2021/04/26 06:45:24;;;;;;;3.30;1.43;;;6.80;99.90;;;;;;6164148;23;20161;-62
2021/04/26 06:47:51;;;;;;;2.53;1.40;;;6.80;99.90;;;;;;6293424;22;20213;-62
2021/04/26 06:50:18;;;;;;;3.60;1.37;;;6.90;99.90;;;;;;6159797;22;20288;-62
2021/04/26 06:52:47;;;;;;;1.97;1.30;;;6.90;99.90;;;;;;6163770;22;20540;-61
2021/04/26 06:55:13;;;;;;;2.40;1.40;;;7.00;99.90;;;;;;6162773;22;20572;-63
2021/04/26 06:57:38;;;;;;;1.70;1.30;;;7.00;99.90;;;;;;6267064;22;20916;-63
2021/04/26 07:00:06;;;;;;;5.30;1.50;;;7.10;99.90;;;;;;6264754;22;20188;-62
2021/04/26 07:02:32;;;;;;;1.33;1.23;;;7.30;99.90;;;;;;6158209;22;20576;-63
2021/04/26 07:04:58;;;;;;;4.60;1.47;;;7.20;99.90;;;;;;6259553;22;20855;-62
2021/04/26 07:07:24;;;;;;;1.17;1.07;;;7.30;99.90;;;;;;6154359;22;20706;-62
2021/04/26 07:09:50;;;;;;;2.83;1.40;;;7.40;99.90;;;;;;6156386;22;20165;-63
2021/04/26 07:12:16;;;;;;;3.67;1.43;;;7.50;99.90;;;;;;6286122;22;21150;-62
2021/04/26 07:14:42;;;;;;;1.80;1.13;;;7.60;99.90;;;;;;6253947;22;21250;-63
2021/04/26 07:17:07;;;;;;;3.53;1.53;;;7.70;99.90;;;;;;6154426;22;20561;-62
2021/04/26 07:19:33;;;;;;;2.37;1.20;;;7.70;99.90;;;;;;6161804;23;20153;-62
2021/04/26 07:21:59;;;;;;;3.10;1.40;;;7.80;99.90;;;;;;6161744;23;20571;-62
2021/04/26 07:24:24;;;;;;;3.03;0.93;;;7.90;99.90;;;;;;6162065;23;20164;-62
2021/04/26 07:26:54;;;;;;;1.70;1.30;;;7.90;99.90;;;;;;6158216;23;20655;-62
2021/04/26 07:29:20;;;;;;;1.77;0.93;;;7.90;99.90;;;;;;6160688;22;20422;-63
2021/04/26 07:31:46;;;;;;;0.80;0.80;;;7.90;99.90;;;;;;6266030;22;20603;-63
2021/04/26 07:34:11;;;;;;;1.50;1.13;;;8.00;99.90;;;;;;6161584;23;20674;-63
2021/04/26 07:36:37;;;;;;;1.33;0.90;;;8.10;99.90;;;;;;6165616;23;20248;-63
2021/04/26 07:39:04;;;;;;;1.50;1.10;;;8.20;99.90;;;;;;6162133;22;20322;-63
2021/04/26 07:41:30;;;;;;;1.53;1.00;;;8.20;99.90;;;;;;6161499;22;20279;-63
2021/04/26 07:43:55;;;;;;;1.57;0.90;;;8.30;99.90;;;;;;6162776;22;20568;-63
2021/04/26 07:46:21;;;;;;;3.10;2.13;;;8.30;99.90;;;;;;6156840;23;20157;-63
2021/04/26 07:48:47;;;;;;;1.83;0.90;;;8.40;99.90;;;;;;6269016;22;20219;-63
2021/04/26 07:51:12;;;;;;;1.17;1.00;;;8.50;99.90;;;;;;6267628;22;20588;-63
2021/04/26 07:53:38;;;;;;;2.00;1.10;;;8.60;99.90;;;;;;6163875;23;20552;-63
2021/04/26 07:56:06;;;;;;;1.30;1.10;;;8.70;99.90;;;;;;6169459;23;20666;-63
2021/04/26 07:58:31;;;;;;;3.20;1.50;;;8.80;99.90;;;;;;6267187;22;20274;-62
2021/04/26 08:00:57;;;;;;;3.83;1.13;;;8.80;99.90;;;;;;6270158;22;21164;-63
2021/04/26 08:03:27;;;;;;;1.77;1.00;;;8.90;99.90;;;;;;6169107;22;20153;-63
2021/04/26 08:05:53;;;;;;;1.90;1.10;;;8.90;99.90;;;;;;6168936;22;20536;-63
2021/04/26 08:08:19;;;;;;;1.40;1.10;;;9.00;99.90;;;;;;6271978;22;20595;-63
2021/04/26 08:10:44;;;;;;;2.00;1.30;;;9.00;99.90;;;;;;6167262;22;20556;-62
2021/04/26 08:13:10;;;;;;;2.80;1.47;;;9.10;99.90;;;;;;6168710;23;20758;-63
2021/04/26 08:15:36;;;;;;;3.10;1.10;;;9.10;99.90;;;;;;6164827;23;20561;-63
2021/04/26 08:18:02;;;;;;;1.00;0.97;;;9.10;98.90;;;;;;6270494;22;20200;-64
2021/04/26 08:20:27;;;;;;;1.27;1.17;;;9.10;98.80;;;;;;6296934;22;20756;-63
2021/04/26 08:22:56;;;;;;;1.57;0.90;;;9.00;98.30;;;;;;6270660;22;20161;-63
2021/04/26 08:25:22;;;;;;;1.20;1.10;;;9.00;98.20;;;;;;6165939;23;20235;-64
2021/04/26 08:27:47;;;;;;;1.20;1.10;;;9.00;99.10;;;;;;6168440;22;20630;-63
2021/04/26 08:30:14;;;;;;;4.37;1.20;;;9.00;99.90;;;;;;6270053;22;20612;-63
2021/04/26 08:32:40;;;;;;;1.33;1.13;;;9.10;99.90;;;;;;6171806;22;20240;-63
2021/04/26 08:35:06;;;;;;;3.07;1.07;;;9.30;99.80;;;;;;6170022;22;20699;-63
2021/04/26 08:37:32;;;;;;;8.43;1.80;;;9.30;99.90;;;;;;6271781;22;20989;-63
2021/04/26 08:39:58;;;;;;;2.37;1.13;;;9.30;99.90;;;;;;6172917;23;20552;-63
2021/04/26 08:42:24;;;;;;;1.30;1.20;;;9.40;99.90;;;;;;6176509;23;20327;-63
2021/04/26 08:44:55;;;;;;;1.67;1.23;;;9.50;98.80;;;;;;6176660;23;20552;-64
2021/04/26 08:47:23;;;;;;;4.97;1.37;;;9.60;99.60;;;;;;6172222;22;20252;-64
2021/04/26 08:49:53;;;;;;;1.20;1.10;;;9.60;98.70;;;;;;6163914;22;21162;-64
2021/04/26 08:52:19;;;;;;;1.20;1.00;;;9.60;98.60;;;;;;6165277;22;20516;-64
2021/04/26 08:54:44;;;;;;;1.83;1.50;;;9.60;98.70;;;;;;6272437;22;20663;-63
2021/04/26 08:57:10;;;;;;;3.03;1.20;;;9.60;99.90;;;;;;6162016;22;20540;-63
2021/04/26 08:59:36;;;;;;;2.17;1.30;;;9.70;98.10;;;;;;6266737;22;20696;-64
2021/04/26 09:02:05;;;;;;;3.00;1.30;;;9.80;97.60;;;;;;6169190;22;20665;-64
2021/04/26 09:04:45;;;;;;;2.77;1.50;;;9.80;98.40;;;;;;6269497;22;20207;-63
2021/04/26 09:07:12;;;;;;;2.37;1.50;;;9.90;97.50;;;;;;6257275;22;20636;-64
2021/04/26 09:09:43;;;;;;;1.40;1.30;;;10.00;96.30;;;;;;6164783;22;20547;-64
2021/04/26 09:12:27;;;;;;;1.40;1.30;;;10.00;97.10;;;;;;6165952;23;20822;-63
2021/04/26 09:14:58;;;;;;;3.00;1.60;;;10.00;95.60;;;;;;6162563;22;20568;-64
2021/04/26 09:17:34;;;;;;;1.90;1.30;;;10.10;95.40;;;;;;6258261;22;20604;-64
2021/04/26 09:20:16;;;;;;;2.00;1.37;;;10.20;96.00;;;;;;6267765;22;21096;-62
2021/04/26 09:22:51;;;;;;;1.30;1.20;;;10.30;96.60;;;;;;6268372;22;20564;-64
2021/04/26 09:25:23;;;;;;;3.03;1.40;;;10.40;96.90;;;;;;6163743;22;20563;-62
2021/04/26 09:27:51;;;;;;;1.70;1.37;;;10.50;97.10;;;;;;6272895;22;20599;-64
2021/04/26 09:30:33;;;;;;;1.30;1.20;;;10.60;97.10;;;;;;6169376;23;20639;-66
2021/04/26 09:33:18;;;;;;;1.73;1.63;;;10.70;97.00;;;;;;6159972;23;20936;-63
2021/04/26 09:35:45;;;;;;;1.60;1.20;;;10.80;97.20;;;;;;6166017;22;21124;-63
2021/04/26 09:38:44;;;;;;;3.20;1.73;;;10.90;95.10;;;;;;6168974;22;20588;-64
2021/04/26 09:41:15;;;;;;;1.60;1.30;;;11.00;94.50;;;;;;6233268;22;20592;-63
2021/04/26 09:43:42;;;;;;;2.23;1.67;;;11.10;95.50;;;;;;6166096;23;20509;-62
2021/04/26 09:46:09;;;;;;;1.90;1.50;;;11.10;95.70;;;;;;6266146;22;21128;-63
2021/04/26 09:48:35;;;;;;;2.40;1.53;;;11.30;93.70;;;;;;6264788;22;21110;-63
2021/04/26 09:51:07;;;;;;;2.57;1.63;;;11.40;95.10;;;;;;6269836;22;20588;-64
2021/04/26 09:53:45;;;;;;;1.43;1.33;;;11.40;94.10;;;;;;6273484;22;20583;-61
2021/04/26 09:56:36;;;;;;;1.87;1.50;;;11.40;91.70;;;;;;6174601;22;20671;-63
2021/04/26 09:59:03;;;;;;;2.07;1.90;;;11.50;91.10;;;;;;6185663;22;20600;-64
2021/04/26 10:01:30;;;;;;;2.07;1.90;;;11.40;90.60;;;;;;6274737;22;21141;-63
2021/04/26 10:03:57;;;;;;;1.40;1.30;;;11.50;92.10;;;;;;6167337;22;20627;-65
2021/04/26 10:06:24;;;;;;;6.40;1.43;;;11.30;91.30;;;;;;6170196;22;20851;-62
2021/04/26 10:08:55;;;;;;;2.20;1.33;;;11.30;91.50;;;;;;6166051;22;20596;-62
2021/04/26 10:11:23;;;;;;;1.77;1.53;;;11.40;93.00;;;;;;6300858;22;20589;-63
2021/04/26 10:13:50;;;;;;;1.53;1.43;;;11.60;91.70;;;;;;6172234;23;20537;-62
2021/04/26 10:16:33;;;;;;;2.40;1.63;;;11.70;93.00;;;;;;6272759;22;20620;-64
2021/04/26 10:19:03;;;;;;;1.77;1.53;;;11.90;91.60;;;;;;6162766;22;20584;-64
2021/04/26 10:21:31;;;;;;;2.77;1.77;;;12.10;92.20;;;;;;6165449;22;21043;-64
2021/04/26 10:23:57;;;;;;;2.13;1.93;;;12.10;90.30;;;;;;6268884;22;20568;-65
2021/04/26 10:26:43;;;;;;;2.87;2.03;;;12.10;87.40;;;;;;6161212;22;20580;-63
2021/04/26 10:29:30;;;;;;;1.80;1.70;;;12.10;85.60;;;;;;6162972;22;20592;-63
2021/04/26 10:32:07;;;;;;;2.80;1.90;;;12.10;87.90;;;;;;6165910;22;20587;-64
2021/04/26 10:34:44;;;;;;;2.50;2.13;;;12.10;87.10;;;;;;6272092;22;20603;-62
2021/04/26 10:37:17;;;;;;;1.80;1.70;;;12.00;88.00;;;;;;6266497;22;20697;-62
2021/04/26 10:39:58;;;;;;;2.17;1.97;;;12.00;88.10;;;;;;6174926;22;20660;-88
2021/04/26 10:42:36;;;;;;;2.33;2.13;;;12.10;88.30;;;;;;6206311;23;20523;-86
2021/04/26 10:45:05;;;;;;;1.90;1.80;;;12.20;82.70;;;;;;6207806;23;20672;-86
2021/04/26 10:47:36;;;;;;;1.97;1.77;;;12.10;87.40;;;;;;6205644;23;20636;-84
2021/04/26 10:50:02;;;;;;;3.37;1.77;;;12.10;86.10;;;;;;6220076;22;20592;-86
2021/04/26 10:52:30;;;;;;;2.80;2.60;;;12.20;90.10;;;;;;6150465;22;20952;-87
2021/04/26 10:55:06;;;;;;;4.07;1.80;;;12.30;90.30;;;;;;6149694;22;20570;-86
2021/04/26 10:57:56;;;;;;;1.90;1.80;;;12.50;85.20;;;;;;6149875;22;20592;-84
2021/04/26 11:00:21;;;;;;;2.10;1.90;;;12.80;88.10;;;;;;6146483;23;20592;-84
2021/04/26 11:02:48;;;;;;;4.07;2.17;;;12.70;88.50;;;;;;6153538;22;21166;-86
2021/04/26 11:05:28;;;;;;;2.20;2.00;;;12.70;84.50;;;;;;6148973;23;20175;-85
2021/04/26 11:07:59;;;;;;;2.17;2.07;;;12.80;84.30;;;;;;6145041;22;20691;-85
2021/04/26 11:10:55;;;;;;;3.30;2.07;;;12.80;85.20;;;;;;6149570;23;20588;-88
2021/04/26 11:13:38;;;;;;;2.23;2.03;;;12.60;79.70;;;;;;6146529;23;20597;-87
2021/04/26 11:16:08;;;;;;;3.37;2.50;;;12.50;82.60;;;;;;6127885;23;20723;-88
2021/04/26 11:18:35;;;;;;;2.17;2.07;;;12.40;80.40;;;;;;6147285;22;20591;-84
2021/04/26 11:21:02;;;;;;;2.30;1.80;;;12.40;82.50;;;;;;6176534;23;20568;-85
2021/04/26 11:23:45;;;;;;;2.30;2.00;;;12.50;85.00;;;;;;6151160;23;20564;-85
2021/04/26 11:26:22;;;;;;;3.10;2.00;;;12.60;84.80;;;;;;6176942;23;20590;-86
2021/04/26 11:29:03;;;;;;;3.40;2.30;;;12.70;85.80;;;;;;6174725;22;20592;-86
2021/04/26 11:31:44;;;;;;;2.90;2.27;;;12.80;85.70;;;;;;6152373;22;20673;-86
2021/04/26 11:34:18;;;;;;;2.50;2.30;;;12.90;86.30;;;;;;6156887;22;21024;-84
2021/04/26 11:37:10;;;;;;;2.70;2.50;;;12.80;81.70;;;;;;6154957;23;20573;-85
2021/04/26 11:39:42;;;;;;;2.40;2.20;;;13.00;80.20;;;;;;6150252;23;20890;-86
2021/04/26 11:42:10;;;;;;;3.43;1.97;;;13.00;83.30;;;;;;6148141;23;20590;-86
2021/04/26 11:44:38;;;;;;;6.50;3.07;;;13.10;80.90;;;;;;6151514;23;20561;-83
2021/04/26 11:47:09;;;;;;;2.60;2.17;;;13.20;85.70;;;;;;6154595;22;20568;-86
2021/04/26 11:49:43;;;;;;;2.70;2.30;;;13.30;85.60;;;;;;6156121;23;20600;-85
2021/04/26 11:52:12;;;;;;;3.57;2.47;;;13.50;86.20;;;;;;6179348;23;20533;-85
2021/04/26 11:54:38;;;;;;;2.47;2.30;;;13.90;82.80;;;;;;6182992;23;20733;-85
2021/04/26 11:57:11;;;;;;;2.53;2.07;;;13.70;82.70;;;;;;6180422;22;20547;-84
2021/04/26 12:00:00;;;;;;;2.30;2.10;;;13.80;80.40;;;;;;6154526;23;20608;-85
2021/04/26 12:02:26;;;;;;;2.67;2.47;;;13.90;77.60;;;;;;6155446;23;21072;-85
2021/04/26 12:04:52;;;;;;;2.13;2.03;;;13.80;78.90;;;;;;6153140;23;20579;-83
2021/04/26 12:07:18;;;;;;;2.10;2.00;;;13.70;78.80;;;;;;6153534;22;20584;-84
2021/04/26 12:09:51;;;;;;;2.07;1.93;;;13.70;79.60;;;;;;6153536;23;20584;-84
2021/04/26 12:12:21;;;;;;;2.83;2.13;;;13.70;83.00;;;;;;6153409;23;20169;-86
2021/04/26 12:14:55;;;;;;;2.67;2.47;;;13.80;78.50;;;;;;6156322;23;20603;-84
2021/04/26 12:17:24;;;;;;;3.90;2.57;;;14.00;78.80;;;;;;6155267;22;20592;-84
2021/04/26 12:19:49;;;;;;;3.00;2.60;;;14.00;77.20;;;;;;6157127;23;20604;-85
2021/04/26 12:22:16;;;;;;;4.00;2.90;;;14.00;75.30;;;;;;6156101;23;20570;-85
2021/04/26 12:24:49;;;;;;;3.37;3.07;;;14.00;75.40;;;;;;6182266;23;20161;-87
2021/04/26 12:27:17;;;;;;;2.90;2.60;;;14.00;77.40;;;;;;6183086;22;20587;-83
2021/04/26 12:29:44;;;;;;;4.23;2.60;;;14.20;80.50;;;;;;6178941;23;20580;-85
2021/04/26 12:32:19;;;;;;;3.07;2.47;;;14.40;79.80;;;;;;6129632;23;20725;-87
2021/04/26 12:34:54;;;;;;;2.70;2.53;;;14.70;75.90;;;;;;6153341;23;20607;-86
2021/04/26 12:37:22;;;;;;;3.20;2.70;;;14.90;79.80;;;;;;6179432;22;20967;-88
2021/04/26 12:39:49;;;;;;;2.10;2.00;;;15.20;74.10;;;;;;6155677;23;21141;-84
2021/04/26 12:42:19;;;;;;;2.67;2.47;;;15.10;70.90;;;;;;6154353;23;20557;-86
2021/04/26 12:44:46;;;;;;;3.10;2.63;;;15.10;71.70;;;;;;6153866;23;20568;-84
2021/04/26 12:47:25;;;;;;;2.50;2.30;;;15.20;71.70;;;;;;6154879;22;20580;-84
2021/04/26 12:50:18;;;;;;;2.73;2.53;;;15.10;74.00;;;;;;6156958;23;20606;-84
2021/04/26 12:53:09;;;;;;;2.20;2.10;;;15.10;70.00;;;;;;6156900;23;20552;-86
2021/04/26 12:55:43;;;;;;;4.73;2.33;;;15.20;70.40;;;;;;6156108;23;20664;-86
2021/04/26 12:58:25;;;;;;;2.40;2.20;;;15.30;70.20;;;;;;6155776;22;20636;-84
2021/04/26 13:01:03;;;;;;;2.67;2.53;;;15.20;71.60;;;;;;6155764;23;20609;-83
2021/04/26 13:03:35;;;;;;;2.90;2.17;;;15.20;68.30;;;;;;6155689;23;20571;-85